createdAt,value
2022-08-02T00:00:50.821Z,96765.81
2022-08-02T00:03:52.640Z,96758.63
2022-08-02T00:06:49.704Z,96762.56
2022-08-02T00:09:46.575Z,96755.81
2022-08-02T00:12:43.406Z,96755.38
2022-08-02T00:15:40.289Z,96748.72
2022-08-02T00:18:37.170Z,96753.81
2022-08-02T00:21:34.049Z,96758.53
2022-08-02T00:24:31.262Z,96754.47
2022-08-02T00:27:28.252Z,96750.38
2022-08-02T00:30:25.182Z,96749.59
2022-08-02T00:34:26.623Z,96747.31
2022-08-02T00:36:38.883Z,96748.63
2022-08-02T00:39:36.639Z,96745.06
2022-08-02T00:42:33.534Z,96741.28
2022-08-02T00:46:02.517Z,96746.72
2022-08-02T00:48:49.723Z,96754.41
2022-08-02T00:51:46.718Z,96761.66
2022-08-02T00:54:43.549Z,96759.38
2022-08-02T00:57:40.465Z,96762.53
2022-08-02T01:00:37.285Z,96757.50
2022-08-02T01:03:34.135Z,96766.59
2022-08-02T01:06:33.204Z,96759.88
2022-08-02T01:09:30.487Z,96767.66
2022-08-02T01:12:27.869Z,96755.75
2022-08-02T01:15:35.874Z,96769.22
2022-08-02T01:18:42.071Z,96757.97
2022-08-02T01:21:58.056Z,96773.59
2022-08-02T01:25:47.451Z,96767.09
2022-08-02T01:28:54.525Z,96770.44
2022-08-02T01:32:18.532Z,96766.84
2022-08-02T01:35:24.748Z,96764.31
2022-08-02T01:38:37.730Z,96772.00
2022-08-02T01:41:36.101Z,96769.31
2022-08-02T01:44:36.759Z,96755.91
2022-08-02T01:47:38.342Z,96757.09
2022-08-02T01:50:37.385Z,96763.44
2022-08-02T01:53:36.780Z,96759.50
2022-08-02T01:56:34.990Z,96763.50
2022-08-02T01:59:32.614Z,96758.13
2022-08-02T02:02:31.844Z,96765.00
2022-08-02T02:05:31.072Z,96770.66
2022-08-02T02:08:38.648Z,96761.72
2022-08-02T02:12:09.816Z,96768.94
2022-08-02T02:14:54.699Z,96760.94
2022-08-02T02:18:12.878Z,96758.81
2022-08-02T02:21:11.948Z,96756.75
2022-08-02T02:24:11.477Z,96757.00
2022-08-02T02:27:12.208Z,96764.34
2022-08-02T02:30:10.038Z,96754.75
2022-08-02T02:33:08.453Z,96769.38
2022-08-02T02:36:07.840Z,96762.63
2022-08-02T02:39:13.130Z,96763.66
2022-08-02T02:42:16.003Z,96758.69
2022-08-02T02:45:14.950Z,96765.22
2022-08-02T02:48:13.821Z,96763.66
2022-08-02T02:51:14.030Z,96766.69
2022-08-02T02:54:30.693Z,96771.97
2022-08-02T02:57:31.310Z,96764.44
2022-08-02T03:00:47.461Z,96763.88
2022-08-02T03:03:45.594Z,96765.66
2022-08-02T03:06:42.580Z,96766.78
2022-08-02T03:09:39.460Z,96767.81
2022-08-02T03:12:36.679Z,96768.03
2022-08-02T03:15:36.132Z,96763.22
2022-08-02T03:18:40.013Z,96770.28
2022-08-02T03:21:36.860Z,96767.59
2022-08-02T03:24:33.748Z,96773.00
2022-08-02T03:27:30.741Z,96771.63
2022-08-02T03:30:27.767Z,96779.28
2022-08-02T03:33:26.696Z,96775.44
2022-08-02T03:36:25.813Z,96785.81
2022-08-02T03:39:23.699Z,96769.59
2022-08-02T03:42:22.103Z,96776.44
2022-08-02T03:45:20.075Z,96778.69
2022-08-02T03:48:34.449Z,96780.97
2022-08-02T03:51:32.440Z,96775.56
2022-08-02T03:54:32.894Z,96771.72
2022-08-02T03:57:33.098Z,96779.16
2022-08-02T04:00:29.931Z,96783.47
2022-08-02T04:03:27.390Z,96785.22
2022-08-02T04:06:28.480Z,96785.22
2022-08-02T04:09:25.891Z,96782.28
2022-08-02T04:12:22.786Z,96788.25
2022-08-02T04:15:19.667Z,96782.84
2022-08-02T04:18:19.959Z,96803.53
2022-08-02T04:21:19.517Z,96800.03
2022-08-02T04:24:18.647Z,96800.31
2022-08-02T04:27:49.311Z,96803.13
2022-08-02T04:30:33.463Z,96799.59
2022-08-02T04:33:31.086Z,96801.97
2022-08-02T04:36:31.708Z,96804.00
2022-08-02T04:39:28.760Z,96807.38
2022-08-02T04:42:27.069Z,96814.03
2022-08-02T04:45:25.533Z,96811.38
2022-08-02T04:48:22.882Z,96816.19
2022-08-02T04:51:19.704Z,96808.28
2022-08-02T04:54:16.566Z,96808.03
2022-08-02T04:57:32.086Z,96815.41
2022-08-02T05:00:29.515Z,96812.88
2022-08-02T05:03:26.661Z,96820.25
2022-08-02T05:06:23.574Z,96812.94
2022-08-02T05:09:20.429Z,96814.44
2022-08-02T05:12:17.281Z,96815.22
2022-08-02T05:15:16.592Z,96816.44
2022-08-02T05:18:13.555Z,96816.34
2022-08-02T05:21:10.856Z,96805.63
2022-08-02T05:24:08.531Z,96808.69
2022-08-02T05:27:16.493Z,96806.34
2022-08-02T05:30:18.555Z,96801.63
2022-08-02T05:33:15.570Z,96806.47
2022-08-02T05:36:12.442Z,96814.94
2022-08-02T05:39:10.816Z,96803.91
2022-08-02T05:42:09.566Z,96807.16
2022-08-02T05:45:07.615Z,96818.31
2022-08-02T05:48:05.042Z,96817.19
2022-08-02T05:51:16.998Z,96828.91
2022-08-02T05:54:27.573Z,96834.09
2022-08-02T05:57:32.966Z,96831.41
2022-08-02T06:00:42.107Z,96821.25
2022-08-02T06:03:51.440Z,96836.38
2022-08-02T06:06:54.520Z,96829.16
2022-08-02T06:09:51.837Z,96841.69
2022-08-02T06:12:54.543Z,96841.47
2022-08-02T06:15:53.887Z,96851.03
2022-08-02T06:18:50.911Z,96840.31
2022-08-02T06:22:40.355Z,96837.34
2022-08-02T06:25:11.698Z,96833.28
2022-08-02T06:28:25.400Z,96826.63
2022-08-02T06:31:22.783Z,96823.38
2022-08-02T06:34:19.617Z,96821.25
2022-08-02T06:37:47.379Z,96822.59
2022-08-02T06:40:54.369Z,96816.00
2022-08-02T06:44:26.182Z,96814.25
2022-08-02T06:47:20.998Z,96810.59
2022-08-02T06:50:17.850Z,96803.13
2022-08-02T06:53:14.750Z,96811.72
2022-08-02T06:56:12.814Z,96806.06
2022-08-02T06:59:09.651Z,96809.75
2022-08-02T07:02:06.487Z,96799.00
2022-08-02T07:05:04.734Z,96799.09
2022-08-02T07:08:02.760Z,96801.38
2022-08-02T07:11:01.205Z,96802.91
2022-08-02T07:13:58.058Z,96803.69
2022-08-02T07:16:54.917Z,96805.19
2022-08-02T07:19:52.085Z,96800.19
2022-08-02T07:22:49.004Z,96802.91
2022-08-02T07:26:02.795Z,96788.03
2022-08-02T07:29:01.140Z,96792.56
2022-08-02T07:31:58.102Z,96792.00
2022-08-02T07:34:55.966Z,96794.44
2022-08-02T07:38:01.955Z,96793.44
2022-08-02T07:40:59.362Z,96780.50
2022-08-02T07:43:56.243Z,96784.16
2022-08-02T07:46:53.073Z,96798.72
2022-08-02T07:49:50.123Z,96783.03
2022-08-02T07:52:48.114Z,96780.88
2022-08-02T07:55:45.418Z,96781.41
2022-08-02T07:58:43.026Z,96776.31
2022-08-02T08:01:40.248Z,96771.91
2022-08-02T08:04:43.322Z,96771.50
2022-08-02T08:07:40.266Z,96769.44
2022-08-02T08:10:37.132Z,96778.69
2022-08-02T08:13:33.975Z,96775.84
2022-08-02T08:16:30.872Z,96772.72
2022-08-02T08:19:50.585Z,96773.00
2022-08-02T08:22:44.545Z,96772.38
2022-08-02T08:25:42.277Z,96777.16
2022-08-02T08:28:39.177Z,96781.13
2022-08-02T08:31:36.256Z,96780.00
2022-08-02T08:34:34.859Z,96783.16
2022-08-02T08:37:35.794Z,96781.13
2022-08-02T08:40:32.786Z,96767.53
2022-08-02T08:43:29.621Z,96768.84
2022-08-02T08:46:34.506Z,96763.03
2022-08-02T08:49:52.610Z,96770.34
2022-08-02T08:52:56.976Z,96762.47
2022-08-02T08:55:56.410Z,96766.59
2022-08-02T08:58:53.289Z,96771.41
2022-08-02T09:01:51.653Z,96760.91
2022-08-02T09:04:54.557Z,96749.72
2022-08-02T09:07:53.182Z,96753.28
2022-08-02T09:10:50.120Z,96767.25
2022-08-02T09:13:57.734Z,96754.13
2022-08-02T09:17:05.676Z,96758.38
2022-08-02T09:20:09.614Z,96752.97
2022-08-02T09:23:07.516Z,96748.94
2022-08-02T09:26:30.718Z,96740.59
2022-08-02T09:29:27.923Z,96745.59
2022-08-02T09:32:24.866Z,96758.66
2022-08-02T09:36:06.204Z,96770.31
2022-08-02T09:39:03.748Z,96772.47
2022-08-02T09:42:10.647Z,96777.94
2022-08-02T09:45:09.471Z,96776.84
2022-08-02T09:48:08.431Z,96779.84
2022-08-02T09:51:05.309Z,96771.16
2022-08-02T09:54:09.493Z,96772.31
2022-08-02T09:57:07.360Z,96758.97
2022-08-02T10:00:15.086Z,96775.00
2022-08-02T10:03:21.913Z,96781.63
2022-08-02T10:06:19.963Z,96762.53
2022-08-02T10:09:17.900Z,96749.97
2022-08-02T10:12:15.567Z,96757.72
2022-08-02T10:15:12.521Z,96762.47
2022-08-02T10:18:28.742Z,96760.03
2022-08-02T10:21:46.970Z,96737.41
2022-08-02T10:24:48.310Z,96741.09
2022-08-02T10:28:04.832Z,96751.31
2022-08-02T10:31:06.221Z,96743.94
2022-08-02T10:34:07.478Z,96741.72
2022-08-02T10:37:08.324Z,96734.00
2022-08-02T10:40:06.801Z,96749.13
2022-08-02T10:43:03.661Z,96739.53
2022-08-02T10:46:30.735Z,96739.50
2022-08-02T10:49:44.495Z,96726.31
2022-08-02T10:52:41.387Z,96717.88
2022-08-02T10:55:47.733Z,96717.69
2022-08-02T10:58:44.676Z,96712.47
2022-08-02T11:01:44.513Z,96711.59
2022-08-02T11:04:44.332Z,96713.97
2022-08-02T11:07:49.950Z,96717.41
2022-08-02T11:10:47.069Z,96700.94
2022-08-02T11:14:07.707Z,96709.28
2022-08-02T11:17:05.825Z,96709.16
2022-08-02T11:20:23.477Z,96695.53
2022-08-02T11:23:44.547Z,96707.53
2022-08-02T11:26:44.701Z,96705.22
2022-08-02T11:29:45.563Z,96701.00
2022-08-02T11:32:42.655Z,96707.25
2022-08-02T11:35:40.854Z,96701.06
2022-08-02T11:38:37.703Z,96707.69
2022-08-02T11:41:46.821Z,96697.94
2022-08-02T11:44:46.579Z,96693.47
2022-08-02T11:47:54.170Z,96701.13
2022-08-02T11:51:16.390Z,96700.22
2022-08-02T11:54:13.230Z,96694.34
2022-08-02T11:57:21.426Z,96688.75
2022-08-02T12:00:18.991Z,96696.84
2022-08-02T12:03:19.605Z,96686.22
2022-08-02T12:06:18.786Z,96685.03
2022-08-02T12:09:18.670Z,96689.22
2022-08-02T12:12:16.211Z,96693.38
2022-08-02T12:15:13.545Z,96690.59
2022-08-02T12:18:33.061Z,96694.53
2022-08-02T12:21:29.899Z,96690.94
2022-08-02T12:24:29.957Z,96687.88
2022-08-02T12:27:31.901Z,96680.75
2022-08-02T12:30:28.727Z,96683.06
2022-08-02T12:33:30.038Z,96673.13
2022-08-02T12:36:27.922Z,96677.84
2022-08-02T12:39:43.687Z,96670.69
2022-08-02T12:42:49.571Z,96657.69
2022-08-02T12:45:49.899Z,96659.03
2022-08-02T12:49:08.405Z,96643.53
2022-08-02T12:52:21.747Z,96658.56
2022-08-02T12:56:01.129Z,96651.00
2022-08-02T12:58:52.473Z,96655.41
2022-08-02T13:01:49.378Z,96643.88
2022-08-02T13:04:50.087Z,96637.75
2022-08-02T13:07:48.010Z,96641.78
2022-08-02T13:10:45.098Z,96637.78
2022-08-02T13:13:42.368Z,96637.69
2022-08-02T13:16:40.037Z,96649.34
2022-08-02T13:19:38.508Z,96646.00
2022-08-02T13:22:37.640Z,96634.78
2022-08-02T13:25:47.999Z,96632.16
2022-08-02T13:28:49.800Z,96629.22
2022-08-02T13:31:46.627Z,96646.31
2022-08-02T13:34:43.539Z,96639.56
2022-08-02T13:37:41.864Z,96634.31
2022-08-02T13:41:04.251Z,96630.94
2022-08-02T13:44:09.527Z,96643.97
2022-08-02T13:47:08.421Z,96635.38
2022-08-02T13:50:06.992Z,96632.56
2022-08-02T13:53:03.885Z,96641.13
2022-08-02T13:56:01.131Z,96639.31
2022-08-02T13:59:00.752Z,96628.25
2022-08-02T14:02:18.634Z,96629.09
2022-08-02T14:05:15.779Z,96624.47
2022-08-02T14:08:16.663Z,96628.88
2022-08-02T14:11:14.179Z,96620.63
2022-08-02T14:14:16.595Z,96625.34
2022-08-02T14:17:14.041Z,96619.94
2022-08-02T14:20:17.994Z,96609.69
2022-08-02T14:23:17.188Z,96619.16
2022-08-02T14:26:27.255Z,96618.34
2022-08-02T14:29:24.634Z,96616.34
2022-08-02T14:32:21.484Z,96604.78
2022-08-02T14:35:26.892Z,96605.59
2022-08-02T14:38:24.362Z,96607.13
2022-08-02T14:41:24.003Z,96602.13
2022-08-02T14:44:20.893Z,96599.97
2022-08-02T14:47:17.768Z,96606.22
2022-08-02T14:50:17.142Z,96604.97
2022-08-02T14:53:13.998Z,96602.28
2022-08-02T14:56:10.909Z,96596.09
2022-08-02T14:59:08.652Z,96591.41
2022-08-02T15:02:05.568Z,96602.28
2022-08-02T15:05:06.461Z,96593.13
2022-08-02T15:08:03.381Z,96587.72
2022-08-02T15:11:00.307Z,96601.31
2022-08-02T15:13:59.123Z,96596.13
2022-08-02T15:16:58.763Z,96589.66
2022-08-02T15:19:59.360Z,96593.59
2022-08-02T15:22:58.136Z,96604.34
2022-08-02T15:25:55.736Z,96591.94
2022-08-02T15:28:55.734Z,96593.59
2022-08-02T15:31:52.712Z,96596.00
2022-08-02T15:34:49.606Z,96584.00
2022-08-02T15:37:46.564Z,96578.66
2022-08-02T15:40:43.620Z,96578.22
2022-08-02T15:44:00.199Z,96570.50
2022-08-02T15:46:57.706Z,96572.81
2022-08-02T15:49:54.586Z,96578.53
2022-08-02T15:52:51.419Z,96588.59
2022-08-02T15:56:05.103Z,96585.81
2022-08-02T15:59:03.445Z,96588.28
2022-08-02T16:02:00.381Z,96592.50
2022-08-02T16:04:57.304Z,96596.31
2022-08-02T16:07:54.144Z,96592.78
2022-08-02T16:10:51.078Z,96588.47
2022-08-02T16:13:53.793Z,96590.97
2022-08-02T16:16:51.007Z,96590.31
2022-08-02T16:19:49.996Z,96584.31
2022-08-02T16:22:48.803Z,96585.09
2022-08-02T16:25:45.782Z,96572.47
2022-08-02T16:28:42.603Z,96587.56
2022-08-02T16:31:42.549Z,96581.88
2022-08-02T16:35:04.414Z,96583.31
2022-08-02T16:37:56.641Z,96570.72
2022-08-02T16:40:58.695Z,96574.38
2022-08-02T16:43:58.158Z,96568.78
2022-08-02T16:46:55.613Z,96566.78
2022-08-02T16:50:04.622Z,96567.09
2022-08-02T16:53:07.344Z,96566.91
2022-08-02T16:56:04.917Z,96566.56
2022-08-02T16:59:02.476Z,96570.59
2022-08-02T17:02:11.332Z,96564.13
2022-08-02T17:05:13.843Z,96564.84
2022-08-02T17:08:17.215Z,96574.53
2022-08-02T17:11:17.398Z,96566.69
2022-08-02T17:14:14.456Z,96569.44
2022-08-02T17:17:14.485Z,96567.22
2022-08-02T17:20:11.652Z,96571.78
2022-08-02T17:23:08.879Z,96564.09
2022-08-02T17:26:13.772Z,96564.28
2022-08-02T17:32:29.302Z,96570.06
2022-08-02T17:35:52.416Z,96572.81
2022-08-02T17:38:50.327Z,96575.19
2022-08-02T17:41:50.522Z,96587.41
2022-08-02T17:44:49.148Z,96589.84
2022-08-02T17:48:03.772Z,96590.63
2022-08-02T17:51:02.039Z,96586.72
2022-08-02T17:53:58.908Z,96596.16
2022-08-02T17:56:56.788Z,96598.56
2022-08-02T18:00:04.149Z,96604.47
2022-08-02T18:06:20.568Z,96605.28
2022-08-02T18:09:23.266Z,96607.22
2022-08-02T18:12:20.083Z,96618.16
2022-08-02T18:15:20.293Z,96620.50
2022-08-02T18:18:19.194Z,96610.66
2022-08-02T18:21:26.428Z,96623.50
2022-08-02T18:24:24.101Z,96617.72
2022-08-02T18:27:21.116Z,96629.28
2022-08-02T18:30:21.648Z,96630.41
2022-08-02T18:34:00.516Z,96622.94
2022-08-02T18:36:47.192Z,96620.53
2022-08-02T18:39:51.485Z,96631.31
2022-08-02T18:42:48.933Z,96632.78
2022-08-02T18:46:07.004Z,96639.03
2022-08-02T18:49:06.728Z,96629.03
2022-08-02T18:52:12.616Z,96629.81
2022-08-02T18:55:10.680Z,96634.41
2022-08-02T18:58:20.271Z,96637.66
2022-08-02T19:01:21.815Z,96643.31
2022-08-02T19:04:29.727Z,96643.13
2022-08-02T19:07:50.419Z,96645.28
2022-08-02T19:10:49.209Z,96647.75
2022-08-02T19:13:46.917Z,96651.25
2022-08-02T19:16:44.156Z,96653.53
2022-08-02T19:19:40.999Z,96661.09
2022-08-02T19:22:37.844Z,96665.84
2022-08-02T19:25:35.460Z,96674.47
2022-08-02T19:28:35.862Z,96670.97
2022-08-02T19:31:34.778Z,96674.88
2022-08-02T19:34:50.190Z,96679.75
2022-08-02T19:37:47.285Z,96682.97
2022-08-02T19:40:46.976Z,96688.38
2022-08-02T19:44:24.291Z,96676.19
2022-08-02T19:47:00.673Z,96686.38
2022-08-02T19:49:57.564Z,96693.91
2022-08-02T19:52:54.727Z,96682.25
2022-08-02T19:55:58.679Z,96687.50
2022-08-02T19:59:12.707Z,96693.44
2022-08-02T20:02:11.383Z,96684.13
2022-08-02T20:05:16.297Z,96693.91
2022-08-02T20:08:31.725Z,96697.84
2022-08-02T20:11:34.601Z,96697.09
2022-08-02T20:14:32.020Z,96700.75
2022-08-02T20:17:31.626Z,96705.59
2022-08-02T20:20:28.921Z,96707.41
2022-08-02T20:23:34.010Z,96704.41
2022-08-02T20:26:31.625Z,96697.97
2022-08-02T20:29:45.095Z,96702.69
2022-08-02T20:32:52.685Z,96705.88
2022-08-02T20:35:53.392Z,96706.81
2022-08-02T20:38:50.331Z,96705.97
2022-08-02T20:41:55.160Z,96704.41
2022-08-02T20:44:55.926Z,96707.03
2022-08-02T20:47:54.632Z,96705.03
2022-08-02T20:50:52.263Z,96703.81
2022-08-02T20:53:56.186Z,96697.72
2022-08-02T20:56:53.364Z,96703.19
2022-08-02T20:59:51.989Z,96708.53
2022-08-02T21:02:49.416Z,96701.31
2022-08-02T21:05:54.693Z,96705.81
2022-08-02T21:08:52.781Z,96707.94
2022-08-02T21:11:50.853Z,96701.94
2022-08-02T21:14:48.202Z,96716.88
2022-08-02T21:17:53.208Z,96701.03
2022-08-02T21:20:57.634Z,96698.47
2022-08-02T21:23:55.054Z,96699.13
2022-08-02T21:26:52.391Z,96697.06
2022-08-02T21:29:49.215Z,96705.94
2022-08-02T21:32:50.509Z,96705.09
2022-08-02T21:35:48.376Z,96705.31
2022-08-02T21:38:46.996Z,96701.66
2022-08-02T21:41:45.879Z,96705.88
2022-08-02T21:44:45.004Z,96709.31
2022-08-02T21:47:47.593Z,96709.38
2022-08-02T21:50:44.478Z,96714.63
2022-08-02T21:53:43.096Z,96713.94
2022-08-02T21:56:40.020Z,96716.53
2022-08-02T21:59:36.947Z,96712.94
2022-08-02T22:02:34.892Z,96718.53
2022-08-02T22:05:37.271Z,96717.81
2022-08-02T22:08:34.419Z,96719.81
2022-08-02T22:11:33.028Z,96713.06
2022-08-02T22:14:29.895Z,96716.13
2022-08-02T22:17:52.107Z,96722.91
2022-08-02T22:20:45.829Z,96724.09
2022-08-02T22:23:51.200Z,96720.03
2022-08-02T22:26:48.352Z,96721.81
2022-08-02T22:29:45.244Z,96723.75
2022-08-02T22:33:01.868Z,96727.81
2022-08-02T22:36:12.306Z,96724.19
2022-08-02T22:39:18.838Z,96732.44
2022-08-02T22:42:16.481Z,96722.91
2022-08-02T22:45:13.461Z,96728.00
2022-08-02T22:48:10.589Z,96733.38
2022-08-02T22:51:07.810Z,96728.34
2022-08-02T22:54:04.812Z,96730.78
2022-08-02T22:57:11.279Z,96726.31
2022-08-02T22:58:38.701Z,96574.56
2022-08-02T22:58:58.173Z,96608.75
2022-08-02T23:00:09.964Z,96723.66
2022-08-02T23:03:07.063Z,96722.88
2022-08-02T23:06:04.674Z,96726.75
2022-08-02T23:09:01.519Z,96727.88
2022-08-02T23:11:58.375Z,96725.31
2022-08-02T23:14:55.237Z,96721.09
2022-08-02T23:18:10.985Z,96734.19
2022-08-02T23:21:08.090Z,96725.88
2022-08-02T23:24:05.295Z,96727.66
2022-08-02T23:27:02.223Z,96729.25
2022-08-02T23:30:01.005Z,96732.41
2022-08-02T23:32:57.826Z,96727.38
2022-08-02T23:35:54.654Z,96729.81
2022-08-02T23:38:51.739Z,96726.69
2022-08-02T23:41:49.298Z,96733.56
2022-08-02T23:44:52.857Z,96733.44
2022-08-02T23:47:50.181Z,96733.91
2022-08-02T23:50:47.825Z,96731.19
2022-08-02T23:53:44.899Z,96734.91
2022-08-02T23:56:41.987Z,96737.63
2022-08-02T23:59:38.853Z,96732.22
